Cody, Wyoming
Current Conditions -  °F | °C
As of 7:55 PM on Tuesday 25 Nov 2014 (Local Time) from KCOD Reporting Station
Overcast Overcast  
Wind Chill: 16°   Ceiling: 1000
Heat Index: 25°   Visibility: 2.5mi
Dew Point: 23°   Wind: 8mph
Humidity: 93%   Direction: 350°N
Pressure: 30.12"   Gusts: NA
Location:  44.53°N, 109.05°W
Report Text: KCOD 260255Z 35007KT 2 1/2SM BKN010 OVC016 M04/M05 A3012 RMK AO1 52030
Loading
Personal Weather Stations






























Interactive Weather Map New forecast layout! Learn more

10-Day Weather Forecast

Advertisements
Track Severe Weather on mobile